Morning Cedar — D7LR — position and weather

sailwx.info

Track history (hours):
 
Tides and Currents Weather Stations Pressure Air Temp Water Temp Dewpoint Dewpoint Depression Visibility Wind Speed Wind Dir Waves Ship Positions

Morning Cedar

Last reported at 2016-Feb-03 04:29 UTC. Time now 2016-Feb-07 08:32 UTC.
Position N 50°14' W 001°29'.

Length 269 m; draft 10.3 m.

Type: Cargo ship. MMSI: 440106000.

Date/timePositionNaut miles runAvg speedWind from/ knotsBaromVisibWave heightAir tempDewpointWater temp
2016-Feb-03 04:29N 50°14' W 001°29'40 9.6
2016-Feb-03 00:17N 50°25' W 000°28'910.7
2016-Feb-02 23:28N 50°27' W 000°15'1011.1
2016-Feb-02 22:34N 50°30' E 000°00'1111.2
2016-Feb-02 21:33N 50°33' E 000°18'3210.7
2016-Feb-02 18:32N 50°47' E 001°03'1010.4
2016-Feb-02 17:34N 50°53' E 001°16'1010.3
2016-Feb-02 16:33N 51°01' E 001°27'1111.1
2016-Feb-02 15:34N 51°09' E 001°39'1212.1
2016-Feb-02 14:33N 51°19' E 001°50'1212.3
2016-Feb-02 13:34N 51°29' E 002°01'1211.8
2016-Feb-02 12:33N 51°38' E 002°14'171 8.9
2016-Feb-01 17:19N 54°03' E 004°41'7 8.3
2016-Feb-01 16:31N 54°04' E 004°53'7 7.8
2016-Feb-01 15:33N 54°06' E 005°05'8 7.6
2016-Feb-01 14:32N 54°06' E 005°18'7 7.3
2016-Feb-01 13:32N 54°07' E 005°31'7 7.4
2016-Feb-01 12:33N 54°08' E 005°43'10 7.9
2016-Feb-01 11:19N 54°10' E 005°59'7 8.9
2016-Feb-01 10:32N 54°11' E 006°11'3210.8
2016-Feb-01 07:33N 54°13' E 007°06'1212.1
2016-Feb-01 06:33N 54°13' E 007°26'1211.8
2016-Feb-01 05:33N 54°08' E 007°44'1111.5
2016-Feb-01 04:33N 54°02' E 008°02'1010.1
2016-Feb-01 03:33N 53°60' E 008°18'1010.1
2016-Feb-01 02:33N 53°58' E 008°35'9 9.2
2016-Feb-01 01:33N 53°51' E 008°46'1211.8
2016-Feb-01 00:33N 53°53' E 009°06'1111.5
2016-Jan-31 23:33N 53°48' E 009°23'1313.1
2016-Jan-31 22:33N 53°36' E 009°35'1111.3
2016-Jan-31 21:34N 53°33' E 009°53'3 2.5
2016-Jan-31 20:34N 53°31' E 009°56'0 0.0
2016-Jan-31 19:31N 53°31' E 009°56'0 0.0
2016-Jan-31 18:31N 53°31' E 009°56'0 0.0
2016-Jan-31 17:31N 53°31' E 009°56'0 0.0
2016-Jan-31 16:31N 53°31' E 009°56'0 0.0
2016-Jan-31 15:28N 53°31' E 009°56'0 0.0
2016-Jan-31 14:31N 53°31' E 009°56'0 0.0
2016-Jan-31 13:31N 53°31' E 009°56'0 0.0
2016-Jan-31 12:31N 53°31' E 009°56'0 0.0
2016-Jan-31 11:31N 53°31' E 009°56'0 0.0
2016-Jan-31 10:31N 53°31' E 009°56'0 0.0
2016-Jan-31 09:31N 53°31' E 009°56'0 0.0
2016-Jan-31 08:31N 53°31' E 009°56'0 0.0
2016-Jan-31 07:31N 53°31' E 009°56'0 0.0
2016-Jan-31 06:31N 53°31' E 009°56'0 0.0
2016-Jan-31 05:31N 53°31' E 009°56'0 0.0
2016-Jan-31 04:31N 53°31' E 009°56'0 0.0
2016-Jan-31 03:31N 53°31' E 009°56'0 0.0
2016-Jan-31 02:31N 53°31' E 009°56'0 0.0
2016-Jan-31 01:31N 53°31' E 009°56'0 0.0
2016-Jan-31 00:31N 53°31' E 009°56'0 0.0
2016-Jan-30 23:31N 53°31' E 009°56'0 0.0
2016-Jan-30 22:31N 53°31' E 009°56'0 0.0
2016-Jan-30 21:31N 53°31' E 009°56'0 0.0
2016-Jan-30 20:31N 53°31' E 009°56'0 0.0
2016-Jan-30 19:31N 53°31' E 009°56'0 0.0
2016-Jan-30 18:31N 53°31' E 009°56'0 0.0
2016-Jan-30 17:31N 53°31' E 009°56'0 0.0
2016-Jan-30 16:31N 53°31' E 009°56'0 0.0
2016-Jan-30 15:31N 53°31' E 009°56'0 0.0
2016-Jan-30 14:31N 53°31' E 009°56'0 0.0
2016-Jan-30 13:31N 53°31' E 009°56'0 0.0
2016-Jan-30 12:28N 53°31' E 009°56'0 0.0
2016-Jan-30 11:33N 53°31' E 009°56'0 0.0
2016-Jan-30 10:33N 53°31' E 009°56'0 0.0
2016-Jan-30 09:34N 53°31' E 009°56'0 0.0
2016-Jan-30 08:34N 53°31' E 009°56'0 0.0
2016-Jan-30 07:33N 53°31' E 009°56'0 0.0
2016-Jan-30 06:33N 53°31' E 009°56'0 0.0
2016-Jan-30 05:31N 53°31' E 009°56'0 0.0
2016-Jan-30 04:31N 53°31' E 009°56'0 0.0
2016-Jan-30 03:31N 53°31' E 009°56'0 0.0
2016-Jan-30 02:34N 53°31' E 009°56'0 0.0
2016-Jan-30 01:34N 53°31' E 009°56'0 0.0
2016-Jan-30 00:34N 53°31' E 009°56'0 0.0
2016-Jan-29 23:34N 53°31' E 009°56'0 0.0
2016-Jan-29 22:31N 53°31' E 009°56'0 0.0
2016-Jan-29 21:34N 53°31' E 009°56'0 0.0
2016-Jan-29 20:34N 53°31' E 009°56'0 0.0
2016-Jan-29 19:33N 53°31' E 009°56'0 0.2
2016-Jan-29 18:33N 53°31' E 009°56'6 6.1
2016-Jan-29 17:34N 53°34' E 009°47'1010.3
2016-Jan-29 16:33N 53°38' E 009°31'1211.7
2016-Jan-29 15:33N 53°49' E 009°22'1110.7
2016-Jan-29 14:33N 53°52' E 009°05'1211.9
2016-Jan-29 13:33N 53°51' E 008°45'1010.0
2016-Jan-29 12:33N 53°58' E 008°33'9 9.4
2016-Jan-29 11:33N 53°60' E 008°17'1110.6
2016-Jan-29 10:33N 54°01' E 007°59'7 7.4
2016-Jan-29 09:33N 54°05' E 007°49'6 6.1
2016-Jan-29 08:33N 54°08' E 007°39'6 5.6
2016-Jan-29 07:33N 54°09' E 007°30'6 6.2
2016-Jan-29 06:33N 54°09' E 007°19'38 9.4
2016-Jan-29 02:32N 54°08' E 006°15'1010.4
2016-Jan-29 01:33N 54°07' E 005°58'1110.8
2016-Jan-29 00:33N 54°05' E 005°40'1111.2
2016-Jan-28 23:33N 54°03' E 005°21'1111.4
2016-Jan-28 22:33N 54°02' E 005°02'1110.9
2016-Jan-28 21:33N 53°59' E 004°44'159 8.8
2016-Jan-28 03:33N 51°42' E 002°30'1211.9
2016-Jan-28 02:33N 51°33' E 002°18'1111.4
2016-Jan-28 01:33N 51°25' E 002°06'1110.8
2016-Jan-28 00:33N 51°17' E 001°54'10 9.5
2016-Jan-27 23:33N 51°10' E 001°44'8 7.9
2016-Jan-27 22:33N 51°04' E 001°37'8 8.1
2016-Jan-27 21:33N 50°57' E 001°28'8 8.2
2016-Jan-27 20:33N 50°50' E 001°24'  
2016-Jan-24 10:05N 40°31' W 011°32'710.6
2016-Jan-24 09:26N 40°24' W 011°35'  
Track history (hours):
 
Tides and Currents Weather Stations Pressure Air Temp Water Temp Dewpoint Dewpoint Depression Visibility Wind Speed Wind Dir Waves Ship Positions

Morning Cedar

Last reported at 2016-Feb-03 04:29 UTC. Time now 2016-Feb-07 08:32 UTC.
Position N 50°14' W 001°29'.

Length 269 m; draft 10.3 m.

Type: Cargo ship. MMSI: 440106000.

Date/timePositionNaut miles runAvg speedWind from/ knotsBaromVisibWave heightAir tempDewpointWater temp
2016-Feb-03 04:29N 50°14' W 001°29'40 9.6
2016-Feb-03 00:17N 50°25' W 000°28'910.7
2016-Feb-02 23:28N 50°27' W 000°15'1011.1
2016-Feb-02 22:34N 50°30' E 000°00'1111.2
2016-Feb-02 21:33N 50°33' E 000°18'3210.7
2016-Feb-02 18:32N 50°47' E 001°03'1010.4
2016-Feb-02 17:34N 50°53' E 001°16'1010.3
2016-Feb-02 16:33N 51°01' E 001°27'1111.1
2016-Feb-02 15:34N 51°09' E 001°39'1212.1
2016-Feb-02 14:33N 51°19' E 001°50'1212.3
2016-Feb-02 13:34N 51°29' E 002°01'1211.8
2016-Feb-02 12:33N 51°38' E 002°14'171 8.9
2016-Feb-01 17:19N 54°03' E 004°41'7 8.3
2016-Feb-01 16:31N 54°04' E 004°53'7 7.8
2016-Feb-01 15:33N 54°06' E 005°05'8 7.6
2016-Feb-01 14:32N 54°06' E 005°18'7 7.3
2016-Feb-01 13:32N 54°07' E 005°31'7 7.4
2016-Feb-01 12:33N 54°08' E 005°43'10 7.9
2016-Feb-01 11:19N 54°10' E 005°59'7 8.9
2016-Feb-01 10:32N 54°11' E 006°11'3210.8
2016-Feb-01 07:33N 54°13' E 007°06'1212.1
2016-Feb-01 06:33N 54°13' E 007°26'1211.8
2016-Feb-01 05:33N 54°08' E 007°44'1111.5
2016-Feb-01 04:33N 54°02' E 008°02'1010.1
2016-Feb-01 03:33N 53°60' E 008°18'1010.1
2016-Feb-01 02:33N 53°58' E 008°35'9 9.2
2016-Feb-01 01:33N 53°51' E 008°46'1211.8
2016-Feb-01 00:33N 53°53' E 009°06'1111.5
2016-Jan-31 23:33N 53°48' E 009°23'1313.1
2016-Jan-31 22:33N 53°36' E 009°35'1111.3
2016-Jan-31 21:34N 53°33' E 009°53'3 2.5
2016-Jan-31 20:34N 53°31' E 009°56'0 0.0
2016-Jan-31 19:31N 53°31' E 009°56'0 0.0
2016-Jan-31 18:31N 53°31' E 009°56'0 0.0
2016-Jan-31 17:31N 53°31' E 009°56'0 0.0
2016-Jan-31 16:31N 53°31' E 009°56'0 0.0
2016-Jan-31 15:28N 53°31' E 009°56'0 0.0
2016-Jan-31 14:31N 53°31' E 009°56'0 0.0
2016-Jan-31 13:31N 53°31' E 009°56'0 0.0
2016-Jan-31 12:31N 53°31' E 009°56'0 0.0
2016-Jan-31 11:31N 53°31' E 009°56'0 0.0
2016-Jan-31 10:31N 53°31' E 009°56'0 0.0
2016-Jan-31 09:31N 53°31' E 009°56'0 0.0
2016-Jan-31 08:31N 53°31' E 009°56'0 0.0
2016-Jan-31 07:31N 53°31' E 009°56'0 0.0
2016-Jan-31 06:31N 53°31' E 009°56'0 0.0
2016-Jan-31 05:31N 53°31' E 009°56'0 0.0
2016-Jan-31 04:31N 53°31' E 009°56'0 0.0
2016-Jan-31 03:31N 53°31' E 009°56'0 0.0
2016-Jan-31 02:31N 53°31' E 009°56'0 0.0
2016-Jan-31 01:31N 53°31' E 009°56'0 0.0
2016-Jan-31 00:31N 53°31' E 009°56'0 0.0
2016-Jan-30 23:31N 53°31' E 009°56'0 0.0
2016-Jan-30 22:31N 53°31' E 009°56'0 0.0
2016-Jan-30 21:31N 53°31' E 009°56'0 0.0
2016-Jan-30 20:31N 53°31' E 009°56'0 0.0
2016-Jan-30 19:31N 53°31' E 009°56'0 0.0
2016-Jan-30 18:31N 53°31' E 009°56'0 0.0
2016-Jan-30 17:31N 53°31' E 009°56'0 0.0
2016-Jan-30 16:31N 53°31' E 009°56'0 0.0
2016-Jan-30 15:31N 53°31' E 009°56'0 0.0
2016-Jan-30 14:31N 53°31' E 009°56'0 0.0
2016-Jan-30 13:31N 53°31' E 009°56'0 0.0
2016-Jan-30 12:28N 53°31' E 009°56'0 0.0
2016-Jan-30 11:33N 53°31' E 009°56'0 0.0
2016-Jan-30 10:33N 53°31' E 009°56'0 0.0
2016-Jan-30 09:34N 53°31' E 009°56'0 0.0
2016-Jan-30 08:34N 53°31' E 009°56'0 0.0
2016-Jan-30 07:33N 53°31' E 009°56'0 0.0
2016-Jan-30 06:33N 53°31' E 009°56'0 0.0
2016-Jan-30 05:31N 53°31' E 009°56'0 0.0
2016-Jan-30 04:31N 53°31' E 009°56'0 0.0
2016-Jan-30 03:31N 53°31' E 009°56'0 0.0
2016-Jan-30 02:34N 53°31' E 009°56'0 0.0
2016-Jan-30 01:34N 53°31' E 009°56'0 0.0
2016-Jan-30 00:34N 53°31' E 009°56'0 0.0
2016-Jan-29 23:34N 53°31' E 009°56'0 0.0
2016-Jan-29 22:31N 53°31' E 009°56'0 0.0
2016-Jan-29 21:34N 53°31' E 009°56'0 0.0
2016-Jan-29 20:34N 53°31' E 009°56'0 0.0
2016-Jan-29 19:33N 53°31' E 009°56'0 0.2
2016-Jan-29 18:33N 53°31' E 009°56'6 6.1
2016-Jan-29 17:34N 53°34' E 009°47'1010.3
2016-Jan-29 16:33N 53°38' E 009°31'1211.7
2016-Jan-29 15:33N 53°49' E 009°22'1110.7
2016-Jan-29 14:33N 53°52' E 009°05'1211.9
2016-Jan-29 13:33N 53°51' E 008°45'1010.0
2016-Jan-29 12:33N 53°58' E 008°33'9 9.4
2016-Jan-29 11:33N 53°60' E 008°17'1110.6
2016-Jan-29 10:33N 54°01' E 007°59'7 7.4
2016-Jan-29 09:33N 54°05' E 007°49'6 6.1
2016-Jan-29 08:33N 54°08' E 007°39'6 5.6
2016-Jan-29 07:33N 54°09' E 007°30'6 6.2
2016-Jan-29 06:33N 54°09' E 007°19'38 9.4
2016-Jan-29 02:32N 54°08' E 006°15'1010.4
2016-Jan-29 01:33N 54°07' E 005°58'1110.8
2016-Jan-29 00:33N 54°05' E 005°40'1111.2
2016-Jan-28 23:33N 54°03' E 005°21'1111.4
2016-Jan-28 22:33N 54°02' E 005°02'1110.9
2016-Jan-28 21:33N 53°59' E 004°44'159 8.8
2016-Jan-28 03:33N 51°42' E 002°30'1211.9
2016-Jan-28 02:33N 51°33' E 002°18'1111.4
2016-Jan-28 01:33N 51°25' E 002°06'1110.8
2016-Jan-28 00:33N 51°17' E 001°54'10 9.5
2016-Jan-27 23:33N 51°10' E 001°44'8 7.9
2016-Jan-27 22:33N 51°04' E 001°37'8 8.1
2016-Jan-27 21:33N 50°57' E 001°28'8 8.2
2016-Jan-27 20:33N 50°50' E 001°24'  
2016-Jan-24 10:05N 40°31' W 011°32'710.6
2016-Jan-24 09:26N 40°24' W 011°35'  

Dump ship's entire track history